Weather at State Technical College of Missouri Airport

Public forecast

Using degrees Fahrenheit for public forecast. Weather courtesy of forecast.io.

Closest aviation weather report (METAR) to State Technical College of Missouri Airport

Closest report is Jefferson City Memorial Airport, 17.5 nm (32.3 km) WNW.

2024/03/01 17:53 (retrieved 42 minutes ago)

KJEF 011753Z 17004KT 10SM OVC050 07/00 A3012 RMK AO2 SLP192 60001 T00720000 10072 20022 58010

Closest aviation forecast (TAF) to State Technical College of Missouri Airport

Closest forecast is Jefferson City Memorial Airport, 17.5 nm (32.3 km) WNW.

2024/03/01 18:28 (retrieved 7 minutes ago)

TAF KJEF 011726Z 0118/0218 17007KT P6SM OVC035 FM012100 19007KT P6SM SCT045 FM020000 18005KT P6SM SKC